Time;durP1;ratioP1;P1;durP2;ratioP2;P2;SDS_P1;SDS_P2;PMS_P1;PMS_P2;Temp;Humidity;BMP_temperature;BMP_pressure;BME280_temperature;BME280_humidity;BME280_pressure;Samples;Min_cycle;Max_cycle;Signal;HPM_P1;HPM_P2
2022/06/15 00:01:13;;;;;;;5.90;4.15;;;15.30;99.90;;;;;;5048243;28;20542;-43
2022/06/15 00:03:40;;;;;;;3.70;2.38;;;15.30;99.90;;;;;;5045003;28;20531;-37
2022/06/15 00:06:08;;;;;;;4.72;2.65;;;15.30;99.90;;;;;;5051227;28;20056;-37
2022/06/15 00:08:34;;;;;;;6.20;2.42;;;15.30;99.90;;;;;;5035901;28;20026;-34
2022/06/15 00:11:06;;;;;;;6.43;3.00;;;15.20;99.90;;;;;;5047942;28;20057;-36
2022/06/15 00:13:32;;;;;;;8.80;2.72;;;15.20;99.90;;;;;;5045246;28;20029;-32
2022/06/15 00:15:58;;;;;;;6.15;2.65;;;15.20;99.90;;;;;;5043734;28;20404;-32
2022/06/15 00:18:26;;;;;;;10.00;3.13;;;15.20;99.90;;;;;;5041982;28;20473;-33
2022/06/15 00:20:51;;;;;;;4.15;3.15;;;15.10;99.90;;;;;;5050490;28;20159;-32
2022/06/15 00:23:17;;;;;;;7.60;2.70;;;15.10;99.90;;;;;;5039189;28;20500;-28
2022/06/15 00:25:47;;;;;;;9.82;4.07;;;15.10;99.90;;;;;;5042314;28;20052;-30
2022/06/15 00:28:13;;;;;;;5.57;3.13;;;15.10;99.90;;;;;;5040671;28;20064;-31
2022/06/15 00:30:38;;;;;;;3.80;3.00;;;15.10;99.90;;;;;;5037281;28;20060;-32
2022/06/15 00:33:04;;;;;;;4.43;2.42;;;15.00;99.90;;;;;;5035316;28;20562;-30
2022/06/15 00:35:29;;;;;;;8.07;4.63;;;15.00;99.90;;;;;;5035710;28;20021;-35
2022/06/15 00:37:55;;;;;;;5.03;3.10;;;15.00;99.90;;;;;;5039738;28;20033;-30
2022/06/15 00:40:20;;;;;;;4.63;3.15;;;14.90;99.90;;;;;;5049135;28;20101;-34
2022/06/15 00:42:46;;;;;;;4.70;2.70;;;14.90;99.90;;;;;;5046097;28;20024;-65
2022/06/15 00:45:12;;;;;;;5.78;3.00;;;14.90;99.90;;;;;;5055597;28;20028;-36
2022/06/15 00:47:43;;;;;;;6.65;2.67;;;14.90;99.90;;;;;;5050411;28;20037;-37
2022/06/15 00:50:20;;;;;;;2.83;2.63;;;14.90;99.90;;;;;;5050822;28;20481;-37
2022/06/15 00:52:52;;;;;;;10.63;2.95;;;14.80;99.90;;;;;;5036127;28;20033;-37
2022/06/15 00:55:27;;;;;;;5.38;3.03;;;14.80;99.90;;;;;;5036151;28;20025;-30
2022/06/15 00:57:54;;;;;;;4.50;2.75;;;14.70;99.90;;;;;;5041661;28;20037;-29
2022/06/15 01:00:20;;;;;;;6.90;2.97;;;14.70;99.90;;;;;;5043974;28;20499;-30
2022/06/15 01:02:46;;;;;;;7.70;2.80;;;14.70;99.90;;;;;;5047692;28;20056;-31
2022/06/15 01:05:20;;;;;;;5.53;2.42;;;14.60;99.90;;;;;;5051833;28;20052;-29
2022/06/15 01:08:03;;;;;;;7.38;2.80;;;14.60;99.90;;;;;;5047299;28;20029;-31
2022/06/15 01:10:41;;;;;;;6.53;3.40;;;14.60;99.90;;;;;;5032196;28;20528;-32
2022/06/15 01:13:42;;;;;;;4.22;3.20;;;14.50;99.90;;;;;;5035207;28;20037;-31
2022/06/15 01:16:26;;;;;;;4.40;3.15;;;14.50;99.90;;;;;;5038280;28;20029;-32
2022/06/15 01:19:29;;;;;;;5.63;3.10;;;14.40;99.90;;;;;;5040785;28;20067;-29
2022/06/15 01:22:04;;;;;;;9.73;3.38;;;14.40;99.90;;;;;;5040936;28;20029;-30
2022/06/15 01:24:29;;;;;;;4.68;2.75;;;14.40;99.90;;;;;;5036989;28;20034;-37
2022/06/15 01:27:18;;;;;;;5.47;3.22;;;14.40;99.90;;;;;;5033751;28;20124;-37
2022/06/15 01:30:02;;;;;;;4.82;2.88;;;14.30;99.90;;;;;;5034351;28;20029;-40
2022/06/15 01:32:42;;;;;;;4.75;2.92;;;14.30;99.90;;;;;;5041001;28;20044;-29
2022/06/15 01:38:36;;;;;;;5.03;3.13;;;14.30;99.90;;;;;;5040496;28;20051;-30
2022/06/15 01:41:34;;;;;;;3.78;2.88;;;14.30;99.90;;;;;;5042974;28;20124;-33
2022/06/15 01:44:08;;;;;;;4.97;3.47;;;14.20;99.90;;;;;;5046089;28;20037;-33
2022/06/15 01:46:39;;;;;;;3.78;3.30;;;14.20;99.90;;;;;;5034426;28;20034;-38
2022/06/15 01:49:08;;;;;;;9.18;3.00;;;14.20;99.90;;;;;;5042003;28;20115;-37
2022/06/15 01:51:38;;;;;;;7.85;3.50;;;14.10;99.90;;;;;;5042054;28;20488;-37
2022/06/15 01:54:12;;;;;;;4.90;2.90;;;14.10;99.90;;;;;;5048728;28;20025;-38
2022/06/15 01:56:50;;;;;;;6.45;3.53;;;14.10;99.90;;;;;;5032491;28;20033;-59
2022/06/15 01:59:35;;;;;;;3.78;2.80;;;14.10;99.90;;;;;;5035205;28;20056;-37
2022/06/15 02:02:19;;;;;;;5.53;3.03;;;14.00;99.90;;;;;;5035570;28;20493;-60
2022/06/15 02:05:02;;;;;;;5.20;3.17;;;14.00;99.90;;;;;;5054122;28;20539;-37
2022/06/15 02:07:50;;;;;;;4.15;2.88;;;14.00;99.90;;;;;;5040516;28;20477;-36
2022/06/15 02:10:26;;;;;;;5.43;3.03;;;13.90;99.90;;;;;;5042191;28;20036;-37
2022/06/15 02:13:04;;;;;;;5.70;2.92;;;13.90;99.90;;;;;;5034053;28;20021;-37
2022/06/15 02:15:30;;;;;;;5.95;2.90;;;13.90;99.90;;;;;;5033755;28;20803;-37
2022/06/15 02:18:03;;;;;;;17.80;3.22;;;13.90;99.90;;;;;;5043775;28;20036;-35
2022/06/15 02:20:31;;;;;;;3.85;2.67;;;13.80;99.90;;;;;;5033931;28;20083;-36
2022/06/15 02:23:02;;;;;;;3.72;3.05;;;13.80;99.90;;;;;;5036203;28;20079;-36
2022/06/15 02:25:33;;;;;;;4.20;3.22;;;13.80;99.90;;;;;;5033359;28;20112;-36
2022/06/15 02:28:00;;;;;;;5.55;2.80;;;13.70;99.90;;;;;;5033349;28;20033;-35
2022/06/15 02:30:28;;;;;;;8.70;3.60;;;13.70;99.90;;;;;;5033423;28;20025;-36
2022/06/15 02:32:53;;;;;;;6.32;3.03;;;13.70;99.90;;;;;;5032961;28;20021;-37
2022/06/15 02:35:20;;;;;;;4.20;2.45;;;13.70;99.90;;;;;;5033006;28;20408;-38
2022/06/15 02:37:48;;;;;;;4.43;2.47;;;13.70;99.90;;;;;;5033902;28;20036;-72
2022/06/15 02:43:02;;;;;;;8.57;3.28;;;13.70;99.90;;;;;;5039200;28;20043;-32
2022/06/15 02:45:34;;;;;;;4.65;3.40;;;13.70;99.90;;;;;;5047148;28;20501;-33
2022/06/15 02:48:02;;;;;;;3.45;2.25;;;13.60;99.90;;;;;;5048165;28;20112;-34
2022/06/15 02:50:34;;;;;;;7.93;2.85;;;13.50;99.90;;;;;;5035196;28;20390;-36
2022/06/15 02:53:20;;;;;;;3.42;3.08;;;13.50;99.90;;;;;;5044404;28;20628;-35
2022/06/15 02:55:47;;;;;;;4.50;3.05;;;13.50;99.90;;;;;;5034071;28;20038;-37
2022/06/15 02:58:21;;;;;;;4.57;2.45;;;13.50;99.90;;;;;;5033306;28;20223;-38
2022/06/15 03:00:47;;;;;;;6.30;3.40;;;13.50;99.90;;;;;;5035085;28;20504;-42
2022/06/15 03:03:13;;;;;;;4.22;3.15;;;13.40;99.90;;;;;;5034509;28;20022;-37
2022/06/15 03:05:41;;;;;;;6.50;3.42;;;13.40;99.90;;;;;;5033435;28;20179;-36
2022/06/15 03:08:06;;;;;;;6.78;3.20;;;13.40;99.90;;;;;;5039714;28;20498;-37
2022/06/15 03:10:32;;;;;;;4.30;2.95;;;13.30;99.90;;;;;;5032567;28;20053;-37
2022/06/15 03:12:58;;;;;;;3.85;2.70;;;13.30;99.90;;;;;;5032888;28;20029;-37
2022/06/15 03:15:23;;;;;;;5.38;2.70;;;13.30;99.90;;;;;;5032823;28;20585;-34
2022/06/15 03:17:52;;;;;;;4.57;3.30;;;13.30;99.90;;;;;;5032655;28;20516;-37
2022/06/15 03:20:18;;;;;;;6.65;2.83;;;13.30;99.90;;;;;;5031757;28;20028;-35
2022/06/15 03:22:44;;;;;;;5.22;3.28;;;13.20;99.90;;;;;;5033588;28;20397;-36
2022/06/15 03:25:09;;;;;;;7.07;3.75;;;13.20;99.90;;;;;;5032876;28;20021;-36
2022/06/15 03:27:35;;;;;;;6.40;3.78;;;13.20;99.90;;;;;;5032376;28;20042;-37
2022/06/15 03:30:04;;;;;;;3.97;3.58;;;13.20;99.90;;;;;;5032836;28;20082;-36
2022/06/15 03:32:29;;;;;;;6.78;3.25;;;13.20;99.90;;;;;;5039171;28;20036;-32
2022/06/15 03:34:55;;;;;;;7.28;3.55;;;13.10;99.90;;;;;;5037147;28;20030;-30
2022/06/15 03:37:20;;;;;;;5.80;3.70;;;13.20;99.90;;;;;;5032020;28;20028;-37
2022/06/15 03:39:46;;;;;;;4.03;2.65;;;13.10;99.90;;;;;;5032454;28;20022;-34
2022/06/15 03:42:22;;;;;;;4.68;2.88;;;13.10;99.90;;;;;;5034605;28;20494;-31
2022/06/15 03:44:48;;;;;;;5.82;3.05;;;13.10;99.90;;;;;;5032346;28;20037;-30
2022/06/15 03:47:17;;;;;;;6.15;3.05;;;13.10;99.90;;;;;;5031962;28;20033;-31
2022/06/15 03:49:51;;;;;;;6.28;2.90;;;13.10;99.90;;;;;;5034065;28;20485;-35
2022/06/15 03:52:21;;;;;;;4.10;2.83;;;13.10;99.90;;;;;;5046982;28;20021;-29
2022/06/15 03:54:47;;;;;;;7.47;3.45;;;13.10;99.90;;;;;;5046890;28;20499;-32
2022/06/15 03:57:15;;;;;;;6.97;3.22;;;13.10;99.90;;;;;;5038086;28;20212;-29
2022/06/15 03:59:45;;;;;;;;;;;13.10;99.90;;;;;;5044752;28;20068;-34
2022/06/15 04:02:11;;;;;;;7.15;2.22;;;13.10;99.90;;;;;;5045706;28;19913;-34
2022/06/15 04:04:37;;;;;;;5.38;2.95;;;13.10;99.90;;;;;;5038866;28;20401;-30
2022/06/15 04:07:04;;;;;;;8.10;3.25;;;13.10;99.90;;;;;;5035857;28;20490;-38
2022/06/15 04:09:31;;;;;;;7.28;2.42;;;13.10;99.90;;;;;;5037007;28;20497;-29
2022/06/15 04:12:08;;;;;;;4.35;2.40;;;13.10;99.90;;;;;;5035438;28;20123;-33
2022/06/15 04:14:35;;;;;;;2.55;2.17;;;13.10;99.90;;;;;;5035849;28;20484;-33
2022/06/15 04:17:01;;;;;;;3.92;2.78;;;13.10;99.90;;;;;;5041760;28;20040;-32
2022/06/15 04:19:29;;;;;;;5.72;2.63;;;13.10;99.90;;;;;;5039535;28;20167;-28
2022/06/15 04:21:56;;;;;;;2.95;2.40;;;13.20;99.90;;;;;;5042494;28;20033;-33
2022/06/15 04:27:09;;;;;;;3.33;2.10;;;13.20;99.90;;;;;;5035486;28;20061;-37
2022/06/15 04:29:34;;;;;;;5.65;3.30;;;13.20;99.90;;;;;;5052836;28;20025;-37
2022/06/15 04:32:01;;;;;;;8.32;3.83;;;13.30;99.90;;;;;;5045992;28;20133;-35
2022/06/15 04:34:26;;;;;;;5.38;3.00;;;13.40;99.90;;;;;;5054353;28;20061;-35
2022/06/15 04:36:52;;;;;;;3.35;3.05;;;13.40;99.90;;;;;;5041980;28;20537;-37
2022/06/15 04:39:17;;;;;;;4.78;2.75;;;13.40;99.90;;;;;;5035508;28;20025;-36
2022/06/15 04:41:43;;;;;;;8.40;2.92;;;13.40;99.90;;;;;;5035293;28;20029;-37
2022/06/15 04:44:11;;;;;;;6.10;2.80;;;13.40;99.90;;;;;;5048323;28;20053;-37
2022/06/15 04:46:36;;;;;;;3.17;2.30;;;13.50;99.90;;;;;;5035128;28;20033;-29
2022/06/15 04:49:03;;;;;;;5.43;3.00;;;13.60;99.90;;;;;;5034546;28;20113;-31
2022/06/15 04:51:30;;;;;;;5.50;2.30;;;13.60;99.90;;;;;;5038153;28;20043;-37
2022/06/15 04:53:59;;;;;;;4.57;2.58;;;13.60;99.90;;;;;;5050533;28;20477;-32
2022/06/15 04:56:26;;;;;;;3.90;2.78;;;13.70;99.90;;;;;;5036180;28;20120;-37
2022/06/15 04:58:51;;;;;;;5.20;2.40;;;13.80;99.90;;;;;;5035436;28;20436;-37
2022/06/15 05:01:17;;;;;;;3.05;2.40;;;13.80;99.90;;;;;;5044184;28;20028;-46
2022/06/15 05:03:43;;;;;;;9.77;2.72;;;13.80;99.90;;;;;;5039454;28;20091;-37
2022/06/15 05:06:16;;;;;;;5.93;3.03;;;13.80;99.90;;;;;;5036856;28;20045;-37
2022/06/15 05:08:42;;;;;;;3.05;2.72;;;13.90;99.90;;;;;;5035943;28;20507;-37
2022/06/15 05:11:08;;;;;;;6.55;3.08;;;14.00;99.90;;;;;;5034556;28;20021;-33
2022/06/15 05:13:33;;;;;;;4.35;3.00;;;14.00;99.90;;;;;;5034334;28;20048;-57
2022/06/15 05:15:59;;;;;;;6.57;2.85;;;14.10;99.90;;;;;;5034754;28;20033;-35
2022/06/15 05:18:25;;;;;;;4.68;2.63;;;14.20;99.90;;;;;;5036395;28;20025;-37
2022/06/15 05:20:51;;;;;;;8.23;2.80;;;14.30;99.90;;;;;;5039236;28;20021;-37
2022/06/15 05:23:17;;;;;;;4.70;3.15;;;14.30;99.90;;;;;;5038825;28;20052;-32
2022/06/15 05:25:43;;;;;;;3.97;2.88;;;14.40;99.90;;;;;;5037338;28;20124;-32
2022/06/15 05:28:10;;;;;;;8.15;2.75;;;14.50;99.90;;;;;;5033559;28;20141;-32
2022/06/15 05:30:36;;;;;;;2.70;2.20;;;14.60;99.90;;;;;;5034067;28;20022;-31
2022/06/15 05:33:02;;;;;;;3.05;2.50;;;14.70;99.90;;;;;;5034452;28;20028;-31
2022/06/15 05:35:29;;;;;;;4.10;2.95;;;14.80;99.90;;;;;;5034565;28;20381;-33
2022/06/15 05:37:55;;;;;;;8.70;2.75;;;14.90;99.90;;;;;;5038817;28;20041;-32
2022/06/15 05:40:20;;;;;;;3.90;2.42;;;15.00;99.90;;;;;;5033631;28;20030;-34
2022/06/15 05:42:46;;;;;;;4.88;2.40;;;15.10;99.90;;;;;;5035485;28;20033;-34
2022/06/15 05:45:12;;;;;;;9.80;2.90;;;15.20;99.90;;;;;;5033020;28;20533;-31
2022/06/15 05:47:38;;;;;;;7.63;2.83;;;15.30;99.90;;;;;;5032757;28;20493;-31
2022/06/15 05:50:05;;;;;;;7.53;2.80;;;15.40;99.90;;;;;;5033997;28;20056;-31
2022/06/15 05:52:30;;;;;;;5.25;2.63;;;15.50;99.90;;;;;;5033272;28;20017;-36
2022/06/15 05:55:01;;;;;;;6.03;2.60;;;15.60;99.90;;;;;;5041812;28;20366;-34
2022/06/15 05:57:27;;;;;;;6.05;2.80;;;15.70;99.90;;;;;;5053658;28;20035;-33
2022/06/15 05:59:56;;;;;;;4.68;3.15;;;15.80;99.90;;;;;;5052373;28;20469;-34
2022/06/15 06:02:24;;;;;;;13.65;2.97;;;15.90;99.90;;;;;;5044776;28;20520;-37
2022/06/15 06:04:50;;;;;;;5.63;2.67;;;16.00;99.90;;;;;;5046255;28;20043;-31
2022/06/15 06:07:16;;;;;;;10.80;3.15;;;16.20;99.90;;;;;;5050334;28;20029;-31
2022/06/15 06:09:42;;;;;;;4.25;2.22;;;16.50;99.90;;;;;;5043218;28;20041;-30
2022/06/15 06:12:09;;;;;;;5.40;2.30;;;17.70;99.90;;;;;;5039769;28;20486;-32
2022/06/15 06:14:37;;;;;;;6.00;2.92;;;18.80;99.90;;;;;;5034502;28;20485;-32
2022/06/15 06:17:03;;;;;;;;;;;19.60;99.90;;;;;;5048462;28;20021;-31
2022/06/15 06:19:29;;;;;;;5.72;2.10;;;20.40;99.90;;;;;;5047769;28;20392;-30
2022/06/15 06:21:54;;;;;;;3.00;1.90;;;22.30;99.90;;;;;;5048529;28;20033;-34
2022/06/15 06:24:20;;;;;;;2.60;2.10;;;24.50;99.50;;;;;;5048990;28;20033;-33
2022/06/15 06:26:45;;;;;;;4.45;2.30;;;26.40;97.50;;;;;;5049035;28;20571;-31
2022/06/15 06:29:14;;;;;;;4.00;2.22;;;28.00;96.00;;;;;;5051732;28;20025;-30
2022/06/15 06:31:40;;;;;;;3.67;1.40;;;29.10;94.10;;;;;;5052042;28;20488;-30
2022/06/15 06:34:05;;;;;;;2.97;1.40;;;29.70;93.20;;;;;;5050351;28;20025;-30
2022/06/15 06:36:32;;;;;;;3.40;1.80;;;30.20;92.60;;;;;;5037085;28;20044;-37
2022/06/15 06:39:00;;;;;;;2.77;1.87;;;30.70;91.80;;;;;;5033593;28;20543;-33
2022/06/15 06:41:27;;;;;;;4.40;2.13;;;30.90;91.40;;;;;;5045908;28;20029;-32
2022/06/15 06:43:54;;;;;;;7.05;1.55;;;31.10;90.60;;;;;;5053320;28;20113;-31
2022/06/15 06:46:19;;;;;;;6.70;2.25;;;31.10;90.10;;;;;;5051466;28;20028;-37
2022/06/15 06:48:46;;;;;;;6.72;2.15;;;30.90;90.20;;;;;;5035428;28;20030;-48
2022/06/15 06:51:12;;;;;;;1.67;1.25;;;29.90;90.90;;;;;;5042383;28;20115;-37
2022/06/15 06:53:38;;;;;;;4.72;1.40;;;28.30;90.90;;;;;;5040621;28;20534;-38
2022/06/15 06:56:07;;;;;;;4.43;1.30;;;26.60;92.30;;;;;;5034417;28;20116;-38
2022/06/15 06:58:33;;;;;;;4.00;1.50;;;25.30;93.50;;;;;;5044177;28;20500;-37
2022/06/15 07:00:59;;;;;;;4.13;1.85;;;24.40;94.50;;;;;;5041645;28;20488;-36
2022/06/15 07:03:24;;;;;;;1.63;1.15;;;24.30;94.80;;;;;;5040599;28;20041;-38
2022/06/15 07:05:50;;;;;;;7.70;1.70;;;24.40;94.80;;;;;;5052252;28;20466;-47
2022/06/15 07:08:16;;;;;;;5.05;1.63;;;25.00;94.80;;;;;;5050124;28;20025;-37
2022/06/15 07:10:42;;;;;;;4.80;1.50;;;25.50;94.00;;;;;;5037008;28;20021;-37
2022/06/15 07:13:08;;;;;;;2.53;1.63;;;26.30;92.90;;;;;;5034854;28;20758;-37
2022/06/15 07:15:36;;;;;;;2.03;1.17;;;27.20;92.40;;;;;;5039426;28;20075;-38
2022/06/15 07:18:03;;;;;;;2.38;1.05;;;27.80;92.10;;;;;;5044567;28;20060;-38
2022/06/15 07:20:30;;;;;;;2.17;1.40;;;28.60;91.80;;;;;;5034298;28;20029;-38
2022/06/15 07:22:56;;;;;;;4.03;1.17;;;29.30;91.10;;;;;;5043146;28;20036;-39
2022/06/15 07:25:22;;;;;;;10.20;1.55;;;29.60;90.80;;;;;;5037023;28;20072;-40
2022/06/15 07:27:48;;;;;;;2.50;1.20;;;30.10;90.20;;;;;;5044335;28;20029;-34
2022/06/15 07:30:18;;;;;;;7.00;1.90;;;30.10;90.20;;;;;;5042667;28;20075;-37
2022/06/15 07:32:44;;;;;;;3.53;1.48;;;30.10;88.80;;;;;;5048198;28;20063;-30
2022/06/15 07:35:24;;;;;;;1.70;1.02;;;29.60;89.60;;;;;;5044136;28;20053;-32
2022/06/15 07:37:51;;;;;;;3.58;1.30;;;29.20;90.30;;;;;;5040661;28;20363;-32
2022/06/15 07:40:19;;;;;;;3.57;1.33;;;28.30;90.30;;;;;;5042105;28;20079;-35
2022/06/15 07:42:45;;;;;;;6.15;1.15;;;28.10;91.10;;;;;;5046861;28;20271;-36
2022/06/15 07:45:12;;;;;;;6.80;1.40;;;27.80;91.00;;;;;;5054270;28;20028;-31
2022/06/15 07:50:22;;;;;;;5.28;1.30;;;26.50;90.90;;;;;;5043128;28;19934;-32
2022/06/15 07:52:51;;;;;;;2.33;1.10;;;25.60;91.60;;;;;;5055453;28;20112;-34
2022/06/15 07:55:21;;;;;;;7.45;1.30;;;25.30;92.40;;;;;;5041330;28;20478;-32
2022/06/15 07:57:47;;;;;;;4.00;1.20;;;25.10;92.20;;;;;;5036549;28;20034;-31
2022/06/15 08:00:14;;;;;;;3.15;1.30;;;25.20;92.20;;;;;;5039700;28;20037;-36
2022/06/15 08:02:40;;;;;;;2.85;0.98;;;25.40;91.20;;;;;;5039645;28;20040;-34
2022/06/15 08:05:07;;;;;;;5.90;0.98;;;25.60;90.70;;;;;;5053047;28;20500;-30
2022/06/15 08:07:35;;;;;;;6.13;0.95;;;25.30;90.60;;;;;;5038740;28;20036;-30
2022/06/15 08:10:01;;;;;;;4.10;1.42;;;24.60;91.30;;;;;;5042442;28;20067;-31
2022/06/15 08:12:27;;;;;;;5.97;1.23;;;24.60;91.60;;;;;;5036103;28;20021;-32
2022/06/15 08:14:56;;;;;;;10.02;1.80;;;24.40;91.80;;;;;;5044707;28;20044;-33
2022/06/15 08:17:25;;;;;;;3.17;1.65;;;24.20;90.80;;;;;;5052778;28;20032;-31
2022/06/15 08:19:56;;;;;;;7.10;1.77;;;24.30;91.10;;;;;;5040239;28;20021;-33
2022/06/15 08:22:22;;;;;;;2.67;1.52;;;24.60;91.40;;;;;;5049564;28;20028;-33
2022/06/15 08:24:48;;;;;;;1.75;1.02;;;24.80;91.50;;;;;;5041695;28;20039;-30
2022/06/15 08:27:17;;;;;;;2.72;1.30;;;24.70;91.50;;;;;;5042131;28;20490;-41
2022/06/15 08:29:46;;;;;;;3.53;1.10;;;24.70;91.10;;;;;;5046454;28;20021;-35
2022/06/15 08:32:12;;;;;;;7.35;1.33;;;24.70;91.40;;;;;;5037013;28;20039;-33
2022/06/15 08:34:39;;;;;;;3.60;1.83;;;24.40;91.80;;;;;;5034510;28;20029;-33
2022/06/15 08:37:07;;;;;;;2.92;1.55;;;24.00;91.70;;;;;;5039828;28;20524;-40
2022/06/15 08:39:33;;;;;;;3.22;1.17;;;24.40;91.50;;;;;;5045559;28;20084;-40
2022/06/15 08:42:33;;;;;;;2.53;1.30;;;24.40;91.50;;;;;;5048542;28;20057;-40
2022/06/15 08:45:13;;;;;;;1.77;1.23;;;24.70;90.90;;;;;;5043614;28;20085;-40
2022/06/15 08:48:09;;;;;;;3.03;0.95;;;25.60;90.60;;;;;;5044963;28;20398;-40
2022/06/15 08:50:47;;;;;;;1.92;1.00;;;25.40;90.20;;;;;;5038464;28;20079;-40
2022/06/15 08:53:18;;;;;;;3.10;1.35;;;25.20;90.80;;;;;;5038717;28;20072;-43
2022/06/15 08:55:43;;;;;;;2.85;1.10;;;26.00;90.50;;;;;;5035959;28;20040;-52
2022/06/15 08:58:46;;;;;;;1.70;0.90;;;25.80;90.40;;;;;;5035365;28;20025;-35
2022/06/15 09:01:33;;;;;;;1.13;1.05;;;26.40;90.10;;;;;;5038846;28;20063;-31
2022/06/15 09:04:16;;;;;;;6.53;1.35;;;26.40;89.60;;;;;;5049728;28;20104;-30
2022/06/15 09:07:09;;;;;;;2.78;1.55;;;26.20;90.60;;;;;;5053858;28;20070;-32
2022/06/15 09:10:03;;;;;;;2.58;1.20;;;26.10;90.60;;;;;;5050650;28;20087;-34
2022/06/15 09:12:49;;;;;;;2.33;1.40;;;25.70;90.50;;;;;;5046837;28;20079;-36
2022/06/15 09:15:33;;;;;;;8.98;2.03;;;25.90;90.40;;;;;;5039702;28;20029;-33
2022/06/15 09:18:27;;;;;;;3.45;1.48;;;25.90;90.80;;;;;;5044664;28;20478;-34
2022/06/15 09:21:21;;;;;;;5.63;1.30;;;26.20;90.50;;;;;;5051360;28;20032;-33
2022/06/15 09:24:01;;;;;;;4.30;1.33;;;26.50;90.70;;;;;;5025261;28;20041;-35
2022/06/15 09:26:51;;;;;;;4.88;1.52;;;26.60;90.20;;;;;;5038335;28;20521;-36
2022/06/15 09:29:41;;;;;;;6.55;1.63;;;26.50;90.30;;;;;;5045254;28;20485;-31
2022/06/15 09:32:17;;;;;;;2.13;1.25;;;26.20;90.10;;;;;;5036678;28;20029;-33
2022/06/15 09:34:48;;;;;;;2.20;1.10;;;26.20;90.40;;;;;;5039873;28;20474;-31
2022/06/15 09:37:21;;;;;;;5.60;1.35;;;25.80;89.30;;;;;;5043208;28;20025;-33
2022/06/15 09:39:48;;;;;;;6.60;1.25;;;24.90;90.70;;;;;;5044960;28;20392;-31
2022/06/15 09:42:38;;;;;;;1.98;1.10;;;24.80;91.20;;;;;;5054462;28;20045;-37
2022/06/15 09:45:17;;;;;;;6.50;1.00;;;24.60;90.80;;;;;;5052618;28;20474;-32
2022/06/15 09:48:05;;;;;;;6.32;1.58;;;24.70;91.60;;;;;;5039824;28;20065;-33
2022/06/15 09:50:52;;;;;;;5.47;1.60;;;24.50;90.90;;;;;;5039222;28;20028;-39
2022/06/15 09:53:29;;;;;;;3.70;1.90;;;24.20;91.80;;;;;;5018207;28;20034;-39
2022/06/15 09:56:03;;;;;;;5.18;2.05;;;24.50;91.00;;;;;;5049777;28;20374;-40
2022/06/15 09:58:33;;;;;;;3.40;0.82;;;24.50;90.90;;;;;;5054165;28;20029;-40
2022/06/15 10:00:59;;;;;;;1.10;0.98;;;24.80;91.30;;;;;;5051207;28;20021;-39
2022/06/15 10:03:29;;;;;;;5.03;2.17;;;25.10;91.40;;;;;;5034122;28;20029;-40
2022/06/15 10:06:20;;;;;;;5.80;1.30;;;25.70;90.60;;;;;;5033881;28;20367;-39
2022/06/15 10:08:46;;;;;;;5.75;1.55;;;25.90;90.80;;;;;;5031626;28;20037;-39
2022/06/15 10:11:26;;;;;;;9.95;1.30;;;26.10;90.40;;;;;;5034124;28;20033;-40
2022/06/15 10:13:51;;;;;;;4.03;1.30;;;26.30;90.40;;;;;;5034047;28;20026;-40
2022/06/15 10:16:24;;;;;;;4.22;1.67;;;27.30;90.30;;;;;;5033989;28;20033;-39
2022/06/15 10:18:53;;;;;;;1.63;1.00;;;28.20;88.60;;;;;;5037245;28;20071;-38
2022/06/15 10:21:26;;;;;;;2.40;1.20;;;27.70;88.50;;;;;;5043824;28;20021;-46
2022/06/15 10:24:07;;;;;;;3.33;1.48;;;26.60;88.20;;;;;;5042945;28;20084;-39
2022/06/15 10:27:12;;;;;;;5.68;1.30;;;26.10;90.10;;;;;;5034335;28;20563;-45
2022/06/15 10:29:38;;;;;;;4.43;1.38;;;25.80;90.60;;;;;;5032761;28;20124;-33
2022/06/15 10:32:10;;;;;;;5.38;1.40;;;25.90;91.00;;;;;;5035477;28;20029;-32
2022/06/15 10:34:47;;;;;;;3.33;1.48;;;26.10;90.30;;;;;;5034591;28;20064;-33
2022/06/15 10:37:32;;;;;;;3.42;1.13;;;26.30;90.60;;;;;;5033495;28;20466;-29
2022/06/15 10:40:17;;;;;;;2.47;1.48;;;25.90;91.10;;;;;;5041897;28;20417;-34
2022/06/15 10:42:48;;;;;;;5.13;1.40;;;25.60;90.70;;;;;;5041543;28;20122;-31
2022/06/15 10:45:19;;;;;;;5.30;1.35;;;26.00;91.00;;;;;;5033336;28;20033;-33
2022/06/15 10:48:20;;;;;;;9.38;1.50;;;26.20;91.00;;;;;;5033538;28;20140;-30
2022/06/15 10:51:07;;;;;;;5.85;1.35;;;26.50;90.10;;;;;;5040013;28;20037;-34
2022/06/15 10:53:42;;;;;;;2.08;1.20;;;26.50;90.90;;;;;;5043809;28;20164;-32
2022/06/15 11:02:26;;;;;;;7.65;1.42;;;25.30;91.60;;;;;;5053247;28;20099;-30
2022/06/15 11:04:57;;;;;;;8.55;1.10;;;24.90;91.70;;;;;;5052887;28;20029;-33
2022/06/15 11:07:22;;;;;;;5.53;1.42;;;25.20;91.70;;;;;;5034997;28;20462;-48
2022/06/15 11:09:54;;;;;;;9.63;1.08;;;25.60;91.30;;;;;;5033399;28;20036;-40
2022/06/15 11:12:43;;;;;;;2.25;1.38;;;25.70;90.90;;;;;;5033116;28;20028;-39
2022/06/15 11:15:20;;;;;;;6.80;1.80;;;25.30;91.40;;;;;;5032564;28;20125;-39
2022/06/15 11:18:05;;;;;;;2.60;1.40;;;24.90;92.60;;;;;;5033359;28;20533;-38
2022/06/15 11:20:45;;;;;;;4.95;1.67;;;24.70;93.20;;;;;;5034595;28;20063;-38
2022/06/15 11:23:16;;;;;;;2.40;1.40;;;24.40;92.60;;;;;;5044845;28;20037;-40
2022/06/15 11:28:53;;;;;;;3.25;1.98;;;24.20;92.20;;;;;;5047930;28;20039;-30
2022/06/15 11:31:20;;;;;;;3.33;1.33;;;24.50;92.40;;;;;;5032995;28;20505;-46
2022/06/15 11:33:52;;;;;;;4.28;1.50;;;24.80;91.70;;;;;;5033222;28;20481;-39
2022/06/15 11:36:46;;;;;;;2.75;1.33;;;24.60;92.40;;;;;;5032952;28;20032;-58
2022/06/15 11:39:26;;;;;;;2.35;1.48;;;24.60;91.60;;;;;;5032775;28;20033;-40
2022/06/15 11:41:54;;;;;;;4.57;1.55;;;24.70;91.90;;;;;;5032918;28;20478;-39
2022/06/15 11:44:22;;;;;;;5.65;1.40;;;25.00;91.60;;;;;;5036451;28;20493;-38
2022/06/15 11:47:13;;;;;;;4.88;1.27;;;25.00;91.50;;;;;;5052604;28;20053;-39
2022/06/15 11:50:20;;;;;;;1.73;1.33;;;25.20;91.30;;;;;;5052880;28;20017;-71
2022/06/15 11:53:10;;;;;;;3.35;1.70;;;25.10;90.80;;;;;;5052608;28;20481;-38
2022/06/15 11:55:47;;;;;;;8.05;1.70;;;24.90;92.00;;;;;;5052705;28;20032;-36
2022/06/15 11:58:53;;;;;;;2.33;1.20;;;24.70;91.70;;;;;;5032923;28;20032;-38
2022/06/15 12:02:00;;;;;;;9.27;1.90;;;24.60;91.60;;;;;;5027944;28;20319;-39
2022/06/15 12:04:42;;;;;;;;;;;24.80;91.60;;;;;;5022429;28;20525;-38
2022/06/15 12:07:33;;;;;;;3.47;1.45;;;25.20;92.10;;;;;;5032847;28;20276;-38
2022/06/15 12:10:16;;;;;;;4.93;1.27;;;25.40;91.70;;;;;;5038983;28;20024;-38
2022/06/15 12:12:57;;;;;;;4.65;1.85;;;25.40;92.30;;;;;;5054155;28;20037;-39
2022/06/15 12:15:33;;;;;;;2.90;1.67;;;25.30;91.60;;;;;;5056395;28;20021;-38
2022/06/15 12:18:01;;;;;;;5.07;1.58;;;25.50;91.70;;;;;;5055943;28;20046;-30
2022/06/15 12:20:51;;;;;;;4.30;1.77;;;25.50;91.50;;;;;;5040935;28;20478;-32
2022/06/15 12:23:36;;;;;;;1.55;1.13;;;25.60;92.10;;;;;;5035968;28;20025;-30
2022/06/15 12:26:36;;;;;;;3.58;1.40;;;25.50;91.80;;;;;;5035748;28;20052;-32
2022/06/15 12:29:06;;;;;;;3.60;1.60;;;25.60;91.20;;;;;;5035974;28;20025;-41
2022/06/15 12:31:59;;;;;;;7.68;1.23;;;25.90;91.60;;;;;;5036945;28;20505;-41
2022/06/15 12:34:58;;;;;;;2.97;1.48;;;26.00;91.50;;;;;;5056164;28;20448;-40
2022/06/15 12:37:36;;;;;;;2.58;1.10;;;26.10;91.90;;;;;;5053415;28;20021;-41
2022/06/15 12:40:20;;;;;;;3.78;1.40;;;25.90;91.30;;;;;;5050686;28;20021;-41
2022/06/15 12:42:50;;;;;;;4.18;1.20;;;25.80;91.20;;;;;;5055747;28;20025;-38
2022/06/15 12:45:48;;;;;;;5.68;1.60;;;25.60;90.70;;;;;;5036829;28;20105;-41
2022/06/15 12:48:33;;;;;;;2.97;1.55;;;25.90;91.10;;;;;;5035357;28;20048;-41
2022/06/15 12:51:33;;;;;;;3.58;1.23;;;25.90;90.70;;;;;;5047161;28;20026;-48
2022/06/15 12:54:27;;;;;;;4.13;1.52;;;25.90;90.70;;;;;;5053437;28;20033;-41
2022/06/15 12:57:33;;;;;;;1.60;1.00;;;25.90;91.00;;;;;;5035645;28;20029;-40
2022/06/15 13:00:05;;;;;;;2.53;1.23;;;25.90;91.40;;;;;;5035226;28;20105;-37
2022/06/15 13:02:38;;;;;;;4.35;1.40;;;25.80;91.00;;;;;;5042608;28;20088;-31
2022/06/15 13:05:25;;;;;;;5.78;1.60;;;25.70;91.20;;;;;;5049905;28;20030;-32
2022/06/15 13:08:14;;;;;;;8.15;1.23;;;25.90;90.50;;;;;;5055307;28;20533;-31
2022/06/15 13:11:10;;;;;;;2.80;1.52;;;26.20;91.40;;;;;;5043975;28;20021;-30
2022/06/15 13:13:38;;;;;;;1.13;0.90;;;26.20;91.00;;;;;;5035371;28;20060;-31
2022/06/15 13:16:15;;;;;;;2.67;1.00;;;26.10;90.90;;;;;;5049534;28;20132;-29
2022/06/15 13:18:51;;;;;;;2.50;1.70;;;26.20;91.20;;;;;;5045465;28;20532;-31
2022/06/15 13:21:19;;;;;;;3.35;1.90;;;26.40;90.50;;;;;;5042049;28;20032;-33
2022/06/15 13:23:59;;;;;;;2.72;1.10;;;26.30;90.20;;;;;;5042377;28;20144;-32
2022/06/15 13:26:46;;;;;;;2.85;1.20;;;26.20;90.70;;;;;;5032764;28;20052;-34
2022/06/15 13:29:12;;;;;;;3.38;1.10;;;26.20;90.50;;;;;;5034513;28;20486;-41
2022/06/15 13:31:48;;;;;;;1.40;1.17;;;26.40;91.20;;;;;;5034950;28;20021;-33
2022/06/15 13:34:15;;;;;;;3.20;1.17;;;26.40;90.70;;;;;;5035320;28;20013;-39
2022/06/15 13:36:43;;;;;;;11.05;1.60;;;26.50;90.40;;;;;;5034627;28;20030;-31
2022/06/15 13:39:46;;;;;;;8.32;1.20;;;26.40;90.70;;;;;;5050071;28;20029;-35